createdAt,value
2022-10-11T00:00:31.116Z,13.17
2022-10-11T00:02:58.439Z,13.11
2022-10-11T00:05:32.001Z,13.05
2022-10-11T00:08:00.778Z,13.04
2022-10-11T00:10:29.793Z,13.11
2022-10-11T00:12:56.716Z,13.10
2022-10-11T00:15:23.725Z,13.02
2022-10-11T00:17:50.721Z,13.05
2022-10-11T00:20:17.881Z,13.09
2022-10-11T00:22:44.863Z,13.04
2022-10-11T00:25:16.757Z,12.93
2022-10-11T00:27:45.880Z,12.97
2022-10-11T00:30:13.356Z,12.88
2022-10-11T00:32:42.711Z,12.93
2022-10-11T00:35:09.925Z,12.96
2022-10-11T00:37:39.643Z,12.85
2022-10-11T00:40:12.730Z,12.80
2022-10-11T00:42:41.324Z,12.85
2022-10-11T00:45:26.156Z,12.84
2022-10-11T00:47:55.011Z,12.65
2022-10-11T00:50:23.944Z,12.82
2022-10-11T00:52:57.809Z,12.90
2022-10-11T00:55:26.731Z,12.86
2022-10-11T00:57:57.128Z,12.87
2022-10-11T01:00:26.054Z,12.93
2022-10-11T01:02:54.876Z,12.92
2022-10-11T01:05:30.277Z,12.76
2022-10-11T01:08:00.205Z,12.77
2022-10-11T01:10:32.599Z,12.82
2022-10-11T01:13:23.298Z,12.84
2022-10-11T01:16:20.423Z,12.75
2022-10-11T01:18:56.663Z,12.78
2022-10-11T01:21:34.134Z,12.79
2022-10-11T01:24:39.143Z,12.76
2022-10-11T01:27:05.971Z,12.74
2022-10-11T01:30:04.333Z,12.70
2022-10-11T01:32:44.611Z,12.67
2022-10-11T01:35:21.523Z,12.64
2022-10-11T01:38:17.433Z,12.63
2022-10-11T01:40:55.157Z,12.61
2022-10-11T01:43:25.630Z,12.49
2022-10-11T01:45:57.295Z,12.54
2022-10-11T01:48:26.075Z,12.53
2022-10-11T01:50:57.113Z,12.47
2022-10-11T01:53:38.196Z,12.41
2022-10-11T01:56:26.577Z,12.45
2022-10-11T01:59:08.272Z,12.48
2022-10-11T02:01:53.430Z,12.52
2022-10-11T02:04:29.312Z,12.50
2022-10-11T02:07:02.980Z,12.42
2022-10-11T02:09:45.789Z,12.44
2022-10-11T02:12:21.153Z,12.27
2022-10-11T02:14:52.430Z,12.29
2022-10-11T02:17:27.814Z,12.26
2022-10-11T02:20:00.390Z,12.27
2022-10-11T02:22:32.696Z,12.29
2022-10-11T02:25:02.430Z,12.19
2022-10-11T02:27:37.940Z,12.31
2022-10-11T02:30:10.211Z,12.19
2022-10-11T02:32:43.495Z,12.25
2022-10-11T02:35:12.663Z,12.27
2022-10-11T02:37:53.240Z,12.26
2022-10-11T02:40:41.575Z,12.26
2022-10-11T02:43:17.673Z,12.25
2022-10-11T02:45:50.800Z,12.15
2022-10-11T02:48:18.814Z,12.19
2022-10-11T02:50:48.186Z,12.12
2022-10-11T02:53:15.117Z,12.06
2022-10-11T02:55:43.935Z,12.03
2022-10-11T02:58:10.503Z,12.03
2022-10-11T03:00:39.564Z,12.11
2022-10-11T03:03:06.110Z,12.05
2022-10-11T03:05:37.184Z,12.08
2022-10-11T03:08:03.804Z,12.02
2022-10-11T03:10:30.406Z,12.02
2022-10-11T03:12:59.255Z,12.02
2022-10-11T03:15:25.801Z,12.02
2022-10-11T03:17:52.433Z,11.86
2022-10-11T03:20:19.075Z,11.80
2022-10-11T03:22:45.770Z,11.98
2022-10-11T03:25:13.013Z,12.04
2022-10-11T03:27:44.593Z,12.05
2022-10-11T03:30:18.361Z,12.04
2022-10-11T03:32:45.095Z,12.10
2022-10-11T03:35:13.907Z,12.11
2022-10-11T03:37:40.502Z,12.09
2022-10-11T03:40:09.906Z,12.07
2022-10-11T03:42:36.819Z,12.20
2022-10-11T03:45:08.116Z,12.10
2022-10-11T03:47:41.583Z,12.16
2022-10-11T03:50:12.017Z,12.15
2022-10-11T03:52:38.948Z,12.11
2022-10-11T03:55:07.275Z,12.22
2022-10-11T03:57:36.267Z,12.20
2022-10-11T04:00:02.916Z,12.26
2022-10-11T04:02:34.697Z,12.27
2022-10-11T04:05:07.552Z,12.27
2022-10-11T04:07:34.203Z,12.22
2022-10-11T04:10:00.779Z,12.12
2022-10-11T04:12:27.367Z,11.93
2022-10-11T04:14:56.229Z,11.91
2022-10-11T04:17:25.556Z,11.98
2022-10-11T04:19:57.234Z,11.96
2022-10-11T04:22:28.495Z,11.91
2022-10-11T04:24:55.238Z,11.80
2022-10-11T04:27:22.422Z,11.73
2022-10-11T04:29:48.950Z,11.69
2022-10-11T04:32:18.100Z,11.56
2022-10-11T04:34:44.617Z,11.65
2022-10-11T04:37:11.203Z,11.55
2022-10-11T04:39:40.184Z,11.64
2022-10-11T04:42:07.063Z,11.60
2022-10-11T04:44:35.906Z,11.71
2022-10-11T04:47:02.427Z,11.77
2022-10-11T04:49:31.684Z,11.83
2022-10-11T04:52:03.061Z,11.83
2022-10-11T04:54:29.622Z,11.92
2022-10-11T04:56:58.492Z,11.99
2022-10-11T04:59:27.245Z,12.01
2022-10-11T05:01:53.851Z,12.01
2022-10-11T05:04:20.543Z,12.06
2022-10-11T05:06:49.350Z,12.07
2022-10-11T05:09:18.423Z,12.12
2022-10-11T05:11:45.417Z,12.15
2022-10-11T05:14:12.003Z,12.16
2022-10-11T05:16:41.146Z,12.20
2022-10-11T05:19:07.678Z,12.22
2022-10-11T05:21:34.241Z,12.19
2022-10-11T05:24:03.033Z,12.18
2022-10-11T05:26:32.188Z,12.08
2022-10-11T05:28:58.764Z,12.13
2022-10-11T05:31:25.339Z,12.13
2022-10-11T05:33:54.315Z,12.10
2022-10-11T05:36:25.390Z,12.08
2022-10-11T05:38:51.967Z,12.08
2022-10-11T05:41:18.521Z,12.04
2022-10-11T05:43:49.859Z,12.11
2022-10-11T05:46:18.859Z,12.12
2022-10-11T05:48:45.798Z,12.15
2022-10-11T05:51:12.643Z,12.16
2022-10-11T05:53:39.447Z,12.13
2022-10-11T05:56:16.718Z,12.02
2022-10-11T05:58:48.048Z,12.11
2022-10-11T06:01:20.291Z,12.14
2022-10-11T06:03:49.364Z,12.21
2022-10-11T06:06:16.483Z,12.13
2022-10-11T06:08:45.829Z,12.20
2022-10-11T06:11:17.211Z,12.29
2022-10-11T06:13:44.388Z,12.19
2022-10-11T06:16:14.494Z,12.27
2022-10-11T06:18:41.139Z,12.19
2022-10-11T06:21:09.935Z,12.31
2022-10-11T06:23:36.561Z,12.33
2022-10-11T06:26:08.753Z,12.43
2022-10-11T06:28:38.266Z,12.46
2022-10-11T06:31:07.569Z,12.51
2022-10-11T06:33:39.585Z,12.56
2022-10-11T06:36:12.387Z,12.58
2022-10-11T06:38:44.892Z,12.43
2022-10-11T06:41:24.784Z,12.58
2022-10-11T06:43:54.081Z,12.66
2022-10-11T06:46:24.987Z,12.66
2022-10-11T06:48:51.909Z,12.71
2022-10-11T06:51:23.275Z,12.82
2022-10-11T06:53:57.872Z,12.74
2022-10-11T06:56:26.251Z,12.77
2022-10-11T06:59:01.914Z,12.84
2022-10-11T07:01:28.582Z,12.80
2022-10-11T07:03:58.593Z,12.67
2022-10-11T07:06:29.910Z,12.80
2022-10-11T07:08:59.196Z,12.98
2022-10-11T07:11:27.797Z,13.04
2022-10-11T07:13:58.859Z,13.09
2022-10-11T07:16:26.854Z,13.17
2022-10-11T07:19:00.401Z,13.23
2022-10-11T07:21:29.280Z,13.13
2022-10-11T07:23:55.805Z,13.35
2022-10-11T07:26:22.416Z,13.66
2022-10-11T07:28:51.628Z,13.74
2022-10-11T07:31:23.884Z,13.52
2022-10-11T07:33:50.520Z,13.82
2022-10-11T07:36:17.095Z,13.95
2022-10-11T07:38:45.044Z,13.80
2022-10-11T07:41:12.120Z,13.78
2022-10-11T07:43:39.900Z,13.71
2022-10-11T07:46:07.683Z,13.82
2022-10-11T07:48:35.999Z,14.02
2022-10-11T07:51:06.763Z,14.15
2022-10-11T07:53:47.472Z,14.34
2022-10-11T07:56:17.174Z,14.40
2022-10-11T07:58:52.763Z,14.39
2022-10-11T08:01:20.576Z,14.39
2022-10-11T08:03:48.283Z,14.37
2022-10-11T08:06:17.647Z,14.58
2022-10-11T08:08:44.508Z,14.58
2022-10-11T08:11:19.013Z,14.93
2022-10-11T08:13:45.537Z,15.05
2022-10-11T08:16:12.785Z,15.18
2022-10-11T08:18:39.942Z,14.97
2022-10-11T08:21:08.745Z,15.04
2022-10-11T08:23:40.068Z,15.10
2022-10-11T08:26:09.728Z,15.23
2022-10-11T08:28:37.128Z,15.26
2022-10-11T08:31:06.332Z,15.50
2022-10-11T08:33:35.671Z,15.71
2022-10-11T08:36:06.087Z,16.06
2022-10-11T08:38:36.432Z,16.00
2022-10-11T08:41:36.467Z,16.01
2022-10-11T08:45:09.394Z,16.21
2022-10-11T08:47:33.725Z,16.43
2022-10-11T08:50:01.290Z,16.19
2022-10-11T08:52:37.253Z,16.45
2022-10-11T08:55:26.585Z,16.37
2022-10-11T08:57:56.151Z,16.44
2022-10-11T09:00:27.137Z,16.48
2022-10-11T09:03:20.159Z,16.56
2022-10-11T09:05:57.622Z,16.49
2022-10-11T09:08:58.216Z,16.47
2022-10-11T09:11:36.269Z,16.49
2022-10-11T09:14:27.026Z,16.45
2022-10-11T09:16:59.646Z,16.40
2022-10-11T09:19:47.013Z,16.24
2022-10-11T09:22:47.591Z,16.49
2022-10-11T09:25:26.018Z,16.51
2022-10-11T09:28:11.855Z,16.51
2022-10-11T09:30:45.963Z,16.60
2022-10-11T09:33:21.252Z,16.81
2022-10-11T09:35:51.225Z,16.84
2022-10-11T09:38:46.866Z,16.99
2022-10-11T09:41:57.752Z,17.01
2022-10-11T09:44:28.896Z,17.21
2022-10-11T09:46:57.433Z,17.33
2022-10-11T09:49:45.092Z,17.38
2022-10-11T09:52:19.028Z,17.64
2022-10-11T09:54:51.616Z,17.86
2022-10-11T09:57:28.740Z,17.84
2022-10-11T10:00:03.682Z,17.85
2022-10-11T10:02:38.565Z,17.84
2022-10-11T10:05:11.219Z,18.04
2022-10-11T10:07:41.040Z,17.98
2022-10-11T10:10:28.479Z,17.87
2022-10-11T10:13:01.121Z,17.85
2022-10-11T10:15:36.518Z,17.71
2022-10-11T10:18:06.568Z,17.43
2022-10-11T10:20:38.555Z,17.60
2022-10-11T10:23:17.895Z,17.65
2022-10-11T10:25:50.948Z,18.11
2022-10-11T10:28:27.796Z,18.19
2022-10-11T10:30:59.202Z,18.24
2022-10-11T10:33:32.716Z,18.05
2022-10-11T10:36:38.620Z,18.05
2022-10-11T10:39:05.167Z,18.02
2022-10-11T10:41:34.395Z,17.62
2022-10-11T10:44:03.492Z,17.57
2022-10-11T10:46:38.366Z,17.83
2022-10-11T10:49:48.301Z,17.85
2022-10-11T10:52:07.528Z,18.00
2022-10-11T10:54:55.390Z,18.03
2022-10-11T10:58:03.647Z,18.05
2022-10-11T11:00:44.322Z,18.19
2022-10-11T11:03:20.486Z,18.11
2022-10-11T11:05:49.558Z,18.22
2022-10-11T11:08:34.843Z,18.10
2022-10-11T11:11:03.626Z,18.13
2022-10-11T11:13:36.478Z,18.24
2022-10-11T11:16:36.305Z,18.13
2022-10-11T11:19:30.735Z,18.19
2022-10-11T11:21:57.338Z,18.25
2022-10-11T11:25:20.586Z,18.33
2022-10-11T11:28:01.035Z,18.45
2022-10-11T11:30:41.135Z,18.45
2022-10-11T11:33:07.679Z,18.34
2022-10-11T11:35:44.071Z,18.47
2022-10-11T11:38:19.250Z,18.48
2022-10-11T11:40:55.110Z,18.38
2022-10-11T11:43:33.289Z,18.40
2022-10-11T11:46:09.589Z,18.49
2022-10-11T11:48:37.617Z,18.47
2022-10-11T11:51:07.523Z,18.59
2022-10-11T11:53:34.396Z,18.56
2022-10-11T11:56:31.396Z,18.49
2022-10-11T11:59:16.504Z,18.34
2022-10-11T12:02:10.094Z,18.52
2022-10-11T12:04:41.514Z,18.79
2022-10-11T12:07:17.634Z,18.62
2022-10-11T12:09:50.513Z,18.72
2022-10-11T12:12:34.426Z,18.80
2022-10-11T12:15:10.029Z,18.92
2022-10-11T12:17:55.213Z,18.82
2022-10-11T12:20:31.378Z,18.85
2022-10-11T12:23:20.142Z,18.95
2022-10-11T12:26:25.054Z,18.91
2022-10-11T12:29:29.429Z,18.97
2022-10-11T12:31:58.838Z,18.89
2022-10-11T12:34:34.557Z,19.01
2022-10-11T12:37:23.573Z,19.09
2022-10-11T12:39:51.757Z,19.01
2022-10-11T12:42:28.317Z,19.08
2022-10-11T12:45:13.192Z,18.93
2022-10-11T12:48:03.043Z,18.93
2022-10-11T12:50:51.837Z,18.97
2022-10-11T12:53:39.976Z,18.94
2022-10-11T12:56:18.408Z,18.74
2022-10-11T12:58:50.370Z,18.85
2022-10-11T13:01:27.171Z,18.86
2022-10-11T13:04:12.655Z,18.88
2022-10-11T13:06:54.333Z,19.01
2022-10-11T13:09:26.971Z,18.95
2022-10-11T13:12:15.848Z,19.04
2022-10-11T13:15:08.461Z,19.02
2022-10-11T13:17:38.981Z,19.10
2022-10-11T13:20:18.169Z,18.93
2022-10-11T13:22:52.880Z,18.94
2022-10-11T13:25:26.405Z,19.04
2022-10-11T13:27:55.013Z,19.24
2022-10-11T13:30:29.660Z,19.21
2022-10-11T13:32:59.946Z,19.21
2022-10-11T13:35:35.398Z,19.29
2022-10-11T13:38:02.593Z,18.96
2022-10-11T13:40:31.136Z,19.04
2022-10-11T13:42:58.480Z,19.03
2022-10-11T13:45:30.621Z,19.16
2022-10-11T13:47:57.552Z,19.16
2022-10-11T13:50:30.746Z,19.13
2022-10-11T13:52:59.921Z,19.13
2022-10-11T13:55:38.830Z,18.90
2022-10-11T13:58:18.873Z,19.01
2022-10-11T14:01:04.463Z,18.81
2022-10-11T14:04:03.809Z,18.88
2022-10-11T14:07:00.885Z,18.93
2022-10-11T14:09:30.808Z,18.90
2022-10-11T14:12:25.877Z,18.84
2022-10-11T14:14:57.677Z,18.97
2022-10-11T14:17:34.038Z,19.00
2022-10-11T14:20:17.780Z,18.88
2022-10-11T14:22:44.615Z,18.95
2022-10-11T14:25:12.088Z,18.99
2022-10-11T14:27:42.739Z,18.98
2022-10-11T14:30:26.110Z,19.01
2022-10-11T14:32:59.468Z,19.05
2022-10-11T14:35:31.809Z,18.90
2022-10-11T14:38:00.940Z,18.77
2022-10-11T14:40:30.004Z,18.87
2022-10-11T14:42:57.006Z,18.80
2022-10-11T14:45:25.949Z,18.82
2022-10-11T14:47:55.827Z,18.74
2022-10-11T14:50:34.568Z,18.85
2022-10-11T14:53:01.320Z,18.68
2022-10-11T14:55:32.138Z,18.69
2022-10-11T14:58:00.983Z,18.68
2022-10-11T15:00:30.800Z,18.71
2022-10-11T15:02:57.607Z,18.70
2022-10-11T15:05:31.114Z,18.67
2022-10-11T15:08:01.778Z,18.67
2022-10-11T15:10:42.707Z,18.35
2022-10-11T15:13:09.386Z,18.56
2022-10-11T15:15:41.100Z,18.26
2022-10-11T15:18:12.447Z,18.08
2022-10-11T15:23:09.872Z,18.24
2022-10-11T15:25:38.558Z,18.27
2022-10-11T15:28:05.782Z,18.15
2022-10-11T15:30:41.280Z,18.01
2022-10-11T15:33:09.132Z,18.04
2022-10-11T15:35:38.292Z,17.96
2022-10-11T15:38:04.848Z,17.92
2022-10-11T15:40:35.433Z,17.95
2022-10-11T15:43:04.685Z,17.88
2022-10-11T15:45:31.368Z,17.81
2022-10-11T15:47:58.279Z,17.75
2022-10-11T15:50:37.576Z,17.67
2022-10-11T15:53:05.198Z,17.61
2022-10-11T15:55:34.225Z,17.59
2022-10-11T15:58:03.521Z,17.48
2022-10-11T16:00:32.868Z,17.34
2022-10-11T16:02:59.930Z,17.29
2022-10-11T16:05:30.436Z,17.33
2022-10-11T16:07:59.354Z,17.20
2022-10-11T16:10:25.886Z,17.18
2022-10-11T16:12:55.089Z,17.17
2022-10-11T16:15:21.913Z,17.01
2022-10-11T16:17:50.840Z,16.95
2022-10-11T16:20:22.497Z,16.94
2022-10-11T16:22:55.186Z,16.91
2022-10-11T16:25:22.187Z,16.81
2022-10-11T16:27:48.968Z,16.77
2022-10-11T16:30:17.522Z,16.65
2022-10-11T16:32:49.275Z,16.65
2022-10-11T16:35:17.188Z,16.52
2022-10-11T16:37:44.046Z,16.48
2022-10-11T16:40:15.853Z,16.40
2022-10-11T16:42:45.426Z,16.29
2022-10-11T16:45:15.974Z,16.28
2022-10-11T16:47:43.612Z,16.22
2022-10-11T16:50:11.122Z,16.17
2022-10-11T16:52:38.113Z,16.16
2022-10-11T16:55:07.420Z,16.10
2022-10-11T16:57:37.841Z,16.01
2022-10-11T17:00:09.574Z,16.04
2022-10-11T17:02:36.787Z,16.07
2022-10-11T17:05:08.204Z,15.99
2022-10-11T17:07:37.272Z,15.98
2022-10-11T17:10:05.496Z,15.95
2022-10-11T17:12:32.530Z,15.87
2022-10-11T17:15:02.054Z,15.81
2022-10-11T17:17:29.704Z,15.84
2022-10-11T17:19:56.311Z,15.78
2022-10-11T17:22:22.894Z,15.76
2022-10-11T17:24:54.043Z,15.77
2022-10-11T17:27:22.951Z,15.73
2022-10-11T17:29:54.946Z,15.69
2022-10-11T17:32:21.466Z,15.66
2022-10-11T17:34:48.109Z,15.65
2022-10-11T17:37:19.943Z,15.51
2022-10-11T17:39:46.671Z,15.52
2022-10-11T17:42:18.055Z,15.54
2022-10-11T17:44:44.583Z,15.48
2022-10-11T17:47:14.725Z,15.48
2022-10-11T17:49:41.435Z,15.48
2022-10-11T17:52:08.013Z,15.39
2022-10-11T17:54:34.537Z,15.42
2022-10-11T17:57:03.365Z,15.37
2022-10-11T17:59:31.857Z,15.33
2022-10-11T18:02:00.660Z,15.28
2022-10-11T18:04:29.704Z,15.24
2022-10-11T18:06:56.554Z,15.28
2022-10-11T18:09:28.045Z,15.24
2022-10-11T18:11:57.003Z,15.30
2022-10-11T18:14:26.138Z,15.22
2022-10-11T18:16:55.773Z,15.20
2022-10-11T18:19:22.353Z,15.21
2022-10-11T18:21:50.994Z,15.20
2022-10-11T18:24:20.013Z,15.20
2022-10-11T18:26:49.913Z,15.19
2022-10-11T18:29:16.486Z,15.21
2022-10-11T18:31:45.771Z,15.12
2022-10-11T18:34:15.915Z,15.19
2022-10-11T18:36:42.687Z,15.11
2022-10-11T18:39:13.070Z,15.14
2022-10-11T18:41:41.841Z,15.13
2022-10-11T18:44:09.120Z,15.07
2022-10-11T18:46:35.973Z,15.07
2022-10-11T18:49:05.147Z,15.06
2022-10-11T18:51:37.752Z,15.11
2022-10-11T18:54:08.580Z,15.12
2022-10-11T18:56:40.568Z,15.04
2022-10-11T18:59:08.430Z,15.01
2022-10-11T19:01:40.825Z,14.93
2022-10-11T19:04:11.977Z,14.87
2022-10-11T19:06:45.214Z,14.84
2022-10-11T19:09:17.887Z,14.82
2022-10-11T19:11:46.836Z,14.79
2022-10-11T19:14:15.675Z,14.75
2022-10-11T19:16:51.428Z,14.68
2022-10-11T19:19:24.676Z,14.63
2022-10-11T19:21:54.634Z,14.57
2022-10-11T19:24:24.113Z,14.62
2022-10-11T19:26:53.074Z,14.61
2022-10-11T19:29:26.462Z,14.68
2022-10-11T19:31:58.427Z,14.59
2022-10-11T19:34:27.534Z,14.58
2022-10-11T19:36:56.427Z,14.34
2022-10-11T19:39:26.573Z,14.47
2022-10-11T19:41:55.462Z,14.47
2022-10-11T19:44:22.012Z,14.43
2022-10-11T19:46:52.683Z,14.46
2022-10-11T19:49:22.682Z,14.44
2022-10-11T19:51:52.587Z,14.40
2022-10-11T19:54:21.927Z,14.34
2022-10-11T19:56:50.950Z,14.39
2022-10-11T19:59:20.288Z,14.34
2022-10-11T20:01:52.843Z,14.27
2022-10-11T20:04:47.486Z,14.29
2022-10-11T20:07:08.739Z,14.22
2022-10-11T20:09:35.291Z,14.22
2022-10-11T20:12:04.746Z,14.14
2022-10-11T20:14:33.660Z,14.29
2022-10-11T20:17:02.816Z,14.18
2022-10-11T20:19:31.103Z,14.06
2022-10-11T20:21:58.539Z,14.19
2022-10-11T20:24:28.883Z,14.22
2022-10-11T20:26:57.933Z,14.30
2022-10-11T20:29:25.394Z,14.30
2022-10-11T20:31:52.089Z,14.18
2022-10-11T20:34:20.849Z,14.20
2022-10-11T20:36:49.291Z,14.13
2022-10-11T20:39:21.217Z,14.24
2022-10-11T20:41:50.285Z,14.06
2022-10-11T20:44:21.790Z,14.04
2022-10-11T20:46:48.527Z,14.06
2022-10-11T20:49:15.080Z,14.04
2022-10-11T20:51:44.876Z,14.09
2022-10-11T20:54:14.019Z,13.99
2022-10-11T20:56:43.033Z,14.05
2022-10-11T20:59:14.757Z,14.02
2022-10-11T21:01:44.769Z,14.06
2022-10-11T21:04:17.741Z,14.01
2022-10-11T21:06:46.573Z,13.99
2022-10-11T21:09:15.647Z,13.95
2022-10-11T21:11:43.449Z,13.95
2022-10-11T21:14:10.037Z,13.92
2022-10-11T21:16:39.599Z,13.80
2022-10-11T21:19:15.868Z,13.87
2022-10-11T21:21:52.452Z,13.90
2022-10-11T21:24:20.202Z,13.76
2022-10-11T21:26:47.920Z,13.77
2022-10-11T21:29:14.628Z,13.95
2022-10-11T21:31:43.924Z,13.92
2022-10-11T21:34:14.345Z,13.94
2022-10-11T21:36:41.317Z,13.95
2022-10-11T21:39:12.543Z,13.92
2022-10-11T21:41:41.930Z,13.93
2022-10-11T21:44:08.472Z,14.05
2022-10-11T21:47:04.750Z,13.95
2022-10-11T21:49:24.503Z,13.88
2022-10-11T21:51:51.251Z,13.91
2022-10-11T21:54:17.822Z,13.86
2022-10-11T21:56:44.352Z,13.95
2022-10-11T21:59:13.699Z,13.88
2022-10-11T22:01:41.212Z,13.96
2022-10-11T22:04:07.896Z,13.84
2022-10-11T22:06:35.137Z,13.83
2022-10-11T22:09:03.728Z,13.81
2022-10-11T22:11:30.693Z,13.78
2022-10-11T22:14:00.065Z,13.70
2022-10-11T22:16:29.141Z,13.67
2022-10-11T22:18:58.585Z,13.72
2022-10-11T22:21:25.239Z,13.66
2022-10-11T22:23:54.650Z,13.71
2022-10-11T22:26:26.863Z,13.53
2022-10-11T22:28:58.709Z,13.54
2022-10-11T22:31:27.464Z,13.51
2022-10-11T22:33:55.754Z,13.55
2022-10-11T22:36:24.351Z,13.58
2022-10-11T22:38:54.184Z,13.58
2022-10-11T22:41:21.441Z,13.60
2022-10-11T22:43:47.982Z,13.52
2022-10-11T22:46:19.352Z,13.40
2022-10-11T22:48:46.345Z,13.30
2022-10-11T22:51:15.200Z,13.36
2022-10-11T22:53:44.241Z,13.36
2022-10-11T22:56:13.548Z,13.40
2022-10-11T22:58:40.081Z,13.36
2022-10-11T23:01:11.536Z,13.39
2022-10-11T23:03:45.158Z,13.34
2022-10-11T23:06:11.784Z,13.30
2022-10-11T23:08:38.386Z,13.14
2022-10-11T23:11:06.505Z,13.13
2022-10-11T23:13:35.477Z,13.04
2022-10-11T23:16:09.337Z,12.97
2022-10-11T23:18:41.022Z,13.00
2022-10-11T23:21:08.490Z,12.97
2022-10-11T23:23:39.711Z,12.98
2022-10-11T23:26:10.590Z,12.90
2022-10-11T23:28:37.516Z,12.87
2022-10-11T23:31:16.557Z,12.95
2022-10-11T23:33:48.340Z,12.88
2022-10-11T23:36:24.756Z,13.04
2022-10-11T23:38:56.324Z,12.92
2022-10-11T23:41:28.258Z,13.06
2022-10-11T23:43:55.178Z,12.98
2022-10-11T23:46:22.003Z,13.01
2022-10-11T23:48:53.291Z,13.01
2022-10-11T23:51:22.297Z,13.02
2022-10-11T23:53:49.011Z,12.96
2022-10-11T23:56:18.023Z,12.96
2022-10-11T23:58:47.157Z,12.90
